createdAt,value
2023-01-17T00:00:05.655Z,22.6
2023-01-17T00:01:08.517Z,22.5
2023-01-17T00:02:10.767Z,22.5
2023-01-17T00:03:13.404Z,22.7
2023-01-17T00:04:15.069Z,22.7
2023-01-17T00:05:17.588Z,22.5
2023-01-17T00:06:20.119Z,22.7
2023-01-17T00:07:22.374Z,22.5
2023-01-17T00:08:24.908Z,22.8
2023-01-17T00:09:27.431Z,22.4
2023-01-17T00:10:29.659Z,22.7
2023-01-17T00:11:32.176Z,22.4
2023-01-17T00:12:34.421Z,22.6
2023-01-17T00:13:36.938Z,22.6
2023-01-17T00:14:39.441Z,22.5
2023-01-17T00:15:41.702Z,22.7
2023-01-17T00:16:44.473Z,22.8
2023-01-17T00:17:46.977Z,22.7
2023-01-17T00:18:49.673Z,22.7
2023-01-17T00:19:52.192Z,22.7
2023-01-17T00:20:54.725Z,22.8
2023-01-17T00:21:56.962Z,22.7
2023-01-17T00:22:59.276Z,22.7
2023-01-17T00:24:01.783Z,22.9
2023-01-17T00:25:04.277Z,22.9
2023-01-17T00:26:06.777Z,22.9
2023-01-17T00:27:09.025Z,22.8
2023-01-17T00:28:11.274Z,22.7
2023-01-17T00:29:13.492Z,22.8
2023-01-17T00:30:16.004Z,22.9
2023-01-17T00:31:18.292Z,22.7
2023-01-17T00:32:20.716Z,22.8
2023-01-17T00:33:23.228Z,22.8
2023-01-17T00:34:25.821Z,22.6
2023-01-17T00:35:28.333Z,22.8
2023-01-17T00:36:30.875Z,22.6
2023-01-17T00:37:33.375Z,22.8
2023-01-17T00:38:35.633Z,22.7
2023-01-17T00:39:37.902Z,22.7
2023-01-17T00:40:40.136Z,22.8
2023-01-17T00:41:42.119Z,22.9
2023-01-17T00:42:44.044Z,22.9
2023-01-17T00:43:46.540Z,22.8
2023-01-17T00:44:49.109Z,22.9
2023-01-17T00:45:51.607Z,22.8
2023-01-17T00:46:53.934Z,22.9
2023-01-17T00:47:56.987Z,23
2023-01-17T00:48:58.996Z,22.9
2023-01-17T00:50:01.615Z,22.8
2023-01-17T00:51:04.114Z,22.8
2023-01-17T00:52:06.060Z,22.9
2023-01-17T00:53:08.339Z,22.8
2023-01-17T00:54:10.951Z,22.9
2023-01-17T00:55:13.456Z,22.8
2023-01-17T00:56:15.666Z,22.9
2023-01-17T00:57:18.194Z,23
2023-01-17T00:58:20.123Z,22.9
2023-01-17T00:59:22.626Z,23
2023-01-17T01:00:24.572Z,22.9
2023-01-17T01:01:26.953Z,22.9
2023-01-17T01:02:30.000Z,23
2023-01-17T01:03:33.078Z,22.8
2023-01-17T01:04:35.295Z,22.8
2023-01-17T01:05:37.895Z,22.9
2023-01-17T01:06:40.132Z,23.1
2023-01-17T01:07:42.630Z,23
2023-01-17T01:08:44.610Z,23
2023-01-17T01:09:47.134Z,22.9
2023-01-17T01:10:49.642Z,22.9
2023-01-17T01:11:52.187Z,23.1
2023-01-17T01:12:54.696Z,23
2023-01-17T01:13:56.938Z,22.9
2023-01-17T01:14:59.428Z,22.9
2023-01-17T01:16:01.385Z,23
2023-01-17T01:17:03.726Z,23.1
2023-01-17T01:18:05.689Z,23
2023-01-17T01:19:08.224Z,23
2023-01-17T01:20:10.452Z,22.8
2023-01-17T01:21:13.090Z,22.8
2023-01-17T01:22:15.611Z,22.9
2023-01-17T01:23:18.119Z,22.9
2023-01-17T01:24:20.621Z,23.1
2023-01-17T01:25:23.122Z,23.1
2023-01-17T01:26:25.097Z,23
2023-01-17T01:27:27.594Z,23.1
2023-01-17T01:28:30.114Z,23
2023-01-17T01:29:32.130Z,23.2
2023-01-17T01:30:34.375Z,23.1
2023-01-17T01:31:36.929Z,23.1
2023-01-17T01:32:39.727Z,23
2023-01-17T01:33:42.017Z,23
2023-01-17T01:34:44.563Z,23
2023-01-17T01:35:47.055Z,23.1
2023-01-17T01:36:49.695Z,23.1
2023-01-17T01:37:52.281Z,23
2023-01-17T01:38:54.591Z,23.2
2023-01-17T01:39:56.822Z,23
2023-01-17T01:40:59.339Z,23
2023-01-17T01:42:01.854Z,23.1
2023-01-17T01:43:04.349Z,23.1
2023-01-17T01:44:06.846Z,23.2
2023-01-17T01:45:09.049Z,22.9
2023-01-17T01:46:11.255Z,23
2023-01-17T01:47:13.503Z,23
2023-01-17T01:48:15.462Z,22.9
2023-01-17T01:49:18.038Z,23
2023-01-17T01:50:20.603Z,23.2
2023-01-17T01:51:23.109Z,23.1
2023-01-17T01:52:25.747Z,23.1
2023-01-17T01:53:28.235Z,23.2
2023-01-17T01:54:30.424Z,23.1
2023-01-17T01:55:32.945Z,23.1
2023-01-17T01:56:34.622Z,23.1
2023-01-17T01:57:37.122Z,23.2
2023-01-17T01:58:39.623Z,23.2
2023-01-17T01:59:41.575Z,23.2
2023-01-17T02:00:43.911Z,23.2
2023-01-17T02:01:47.093Z,23.3
2023-01-17T02:02:50.295Z,23.2
2023-01-17T02:03:52.509Z,23.1
2023-01-17T02:04:55.296Z,23.1
2023-01-17T02:05:57.783Z,23.1
2023-01-17T02:07:00.297Z,23.1
2023-01-17T02:08:02.925Z,23
2023-01-17T02:09:05.408Z,23.1
2023-01-17T02:10:07.923Z,23
2023-01-17T02:11:09.869Z,23.2
2023-01-17T02:12:12.389Z,23.1
2023-01-17T02:13:14.644Z,23
2023-01-17T02:14:16.899Z,23.2
2023-01-17T02:15:19.202Z,23
2023-01-17T02:16:21.781Z,23
2023-01-17T02:17:24.729Z,23
2023-01-17T02:18:26.930Z,23
2023-01-17T02:19:29.427Z,23
2023-01-17T02:20:31.687Z,23.1
2023-01-17T02:21:34.219Z,23.1
2023-01-17T02:22:36.729Z,23.2
2023-01-17T02:23:39.338Z,23.2
2023-01-17T02:24:41.576Z,23.1
2023-01-17T02:25:44.059Z,23.1
2023-01-17T02:26:46.269Z,23.1
2023-01-17T02:27:48.513Z,23.1
2023-01-17T02:28:51.026Z,23.1
2023-01-17T02:29:53.525Z,23.2
2023-01-17T02:30:56.147Z,23.1
2023-01-17T02:31:58.651Z,23.1
2023-01-17T02:33:00.882Z,23.1
2023-01-17T02:34:03.402Z,23.1
2023-01-17T02:35:05.354Z,23
2023-01-17T02:36:07.918Z,23
2023-01-17T02:37:10.432Z,23
2023-01-17T02:38:12.521Z,23.1
2023-01-17T02:39:15.141Z,23.2
2023-01-17T02:40:17.369Z,23.2
2023-01-17T02:41:19.866Z,23.1
2023-01-17T02:42:22.396Z,23
2023-01-17T02:43:24.648Z,23.1
2023-01-17T02:44:27.180Z,23.3
2023-01-17T02:45:29.433Z,23.2
2023-01-17T02:46:32.249Z,23.3
2023-01-17T02:47:34.493Z,23.2
2023-01-17T02:48:36.995Z,23.1
2023-01-17T02:49:39.493Z,23.1
2023-01-17T02:50:42.007Z,23.1
2023-01-17T02:51:43.975Z,23.2
2023-01-17T02:52:46.484Z,23
2023-01-17T02:53:48.966Z,23
2023-01-17T02:54:51.558Z,22.9
2023-01-17T02:55:53.773Z,23
2023-01-17T02:56:56.275Z,23.1
2023-01-17T02:57:58.799Z,23
2023-01-17T02:59:01.038Z,23
2023-01-17T03:00:03.556Z,23.1
2023-01-17T03:01:06.200Z,23
2023-01-17T03:02:09.681Z,23
2023-01-17T03:03:12.931Z,23.1
2023-01-17T03:04:14.895Z,23
2023-01-17T03:05:18.540Z,23
2023-01-17T03:06:22.114Z,23.1
2023-01-17T03:07:24.652Z,23.2
2023-01-17T03:08:27.212Z,23
2023-01-17T03:09:29.748Z,23
2023-01-17T03:10:32.364Z,23.1
2023-01-17T03:11:34.905Z,23.1
2023-01-17T03:12:37.409Z,23
2023-01-17T03:13:40.051Z,23.1
2023-01-17T03:14:42.296Z,23.2
2023-01-17T03:15:44.814Z,23.1
2023-01-17T03:16:47.428Z,23
2023-01-17T03:17:50.225Z,23
2023-01-17T03:18:52.471Z,23.2
2023-01-17T03:19:55.025Z,23.1
2023-01-17T03:20:57.515Z,23
2023-01-17T03:22:00.013Z,23.1
2023-01-17T03:23:02.544Z,23
2023-01-17T03:24:05.044Z,23.1
2023-01-17T03:25:07.551Z,23.1
2023-01-17T03:26:10.183Z,23
2023-01-17T03:27:12.671Z,23
2023-01-17T03:28:15.171Z,23.1
2023-01-17T03:29:17.671Z,23
2023-01-17T03:30:19.911Z,23
2023-01-17T03:31:22.378Z,23.1
2023-01-17T03:32:24.889Z,23
2023-01-17T03:33:27.376Z,23.1
2023-01-17T03:34:29.613Z,23.2
2023-01-17T03:35:31.879Z,23.2
2023-01-17T03:36:34.385Z,23
2023-01-17T03:37:36.637Z,23.2
2023-01-17T03:38:39.202Z,23
2023-01-17T03:39:41.757Z,23.2
2023-01-17T03:40:44.264Z,23.2
2023-01-17T03:41:46.997Z,23.1
2023-01-17T03:42:49.516Z,23.1
2023-01-17T03:43:51.736Z,23.1
2023-01-17T03:44:53.940Z,23.2
2023-01-17T03:45:56.559Z,23.1
2023-01-17T03:46:59.380Z,23.1
2023-01-17T03:48:01.921Z,23.1
2023-01-17T03:49:04.282Z,23
2023-01-17T03:50:06.764Z,23
2023-01-17T03:51:08.717Z,23.2
2023-01-17T03:52:10.931Z,23.1
2023-01-17T03:53:12.891Z,23
2023-01-17T03:54:15.177Z,23.1
2023-01-17T03:55:17.683Z,23.1
2023-01-17T03:56:20.190Z,23.2
2023-01-17T03:57:22.805Z,23.3
2023-01-17T03:58:25.103Z,23.2
2023-01-17T03:59:27.610Z,23.1
2023-01-17T04:00:30.128Z,23.3
2023-01-17T04:01:32.485Z,23.3
2023-01-17T04:02:35.716Z,23.2
2023-01-17T04:03:38.548Z,23.1
2023-01-17T04:04:40.500Z,23.1
2023-01-17T04:05:43.009Z,23.2
2023-01-17T04:06:45.526Z,23.2
2023-01-17T04:07:48.045Z,23.1
2023-01-17T04:08:51.733Z,23.2
2023-01-17T04:09:54.267Z,23.4
2023-01-17T04:10:56.536Z,23.1
2023-01-17T04:11:59.109Z,23.1
2023-01-17T04:13:01.823Z,23.1
2023-01-17T04:14:04.456Z,23.2
2023-01-17T04:15:06.955Z,23.1
2023-01-17T04:16:09.479Z,23.1
2023-01-17T04:17:11.995Z,23
2023-01-17T04:18:14.491Z,23.2
2023-01-17T04:19:16.995Z,23
2023-01-17T04:20:19.201Z,23.1
2023-01-17T04:21:21.719Z,22.8
2023-01-17T04:22:24.241Z,23
2023-01-17T04:23:26.469Z,23.1
2023-01-17T04:24:28.952Z,23
2023-01-17T04:25:31.505Z,23
2023-01-17T04:26:33.764Z,23
2023-01-17T04:27:36.253Z,22.9
2023-01-17T04:28:38.601Z,22.9
2023-01-17T04:29:41.113Z,22.9
2023-01-17T04:30:45.876Z,22.9
2023-01-17T04:31:48.945Z,23
2023-01-17T04:32:51.533Z,23
2023-01-17T04:33:53.774Z,22.9
2023-01-17T04:34:56.273Z,22.9
2023-01-17T04:35:58.535Z,23
2023-01-17T04:37:01.160Z,22.9
2023-01-17T04:38:03.662Z,22.9
2023-01-17T04:39:05.909Z,22.8
2023-01-17T04:40:08.468Z,22.9
2023-01-17T04:41:11.028Z,22.9
2023-01-17T04:42:12.980Z,23.1
2023-01-17T04:43:15.222Z,22.9
2023-01-17T04:44:17.857Z,23
2023-01-17T04:45:20.349Z,23
2023-01-17T04:46:22.907Z,23
2023-01-17T04:47:25.678Z,22.9
2023-01-17T04:48:27.902Z,22.9
2023-01-17T04:49:30.404Z,22.9
2023-01-17T04:50:32.909Z,22.9
2023-01-17T04:51:35.420Z,22.9
2023-01-17T04:52:37.683Z,22.9
2023-01-17T04:53:39.955Z,23
2023-01-17T04:54:42.478Z,22.9
2023-01-17T04:55:44.972Z,22.7
2023-01-17T04:56:47.215Z,22.7
2023-01-17T04:57:49.721Z,22.8
2023-01-17T04:58:52.246Z,22.8
2023-01-17T04:59:54.851Z,22.7
2023-01-17T05:00:57.152Z,22.8
2023-01-17T05:01:59.808Z,22.9
2023-01-17T05:03:02.357Z,22.9
2023-01-17T05:04:04.863Z,22.9
2023-01-17T05:05:07.381Z,22.9
2023-01-17T05:06:09.893Z,22.8
2023-01-17T05:07:12.427Z,22.8
2023-01-17T05:08:14.927Z,22.9
2023-01-17T05:09:17.450Z,23
2023-01-17T05:10:19.968Z,22.9
2023-01-17T05:11:22.477Z,22.8
2023-01-17T05:12:24.731Z,22.9
2023-01-17T05:13:26.948Z,22.8
2023-01-17T05:14:29.494Z,22.9
2023-01-17T05:15:32.158Z,22.9
2023-01-17T05:16:34.399Z,22.9
2023-01-17T05:17:36.893Z,22.8
2023-01-17T05:18:39.407Z,22.8
2023-01-17T05:19:41.902Z,22.9
2023-01-17T05:20:44.132Z,22.9
2023-01-17T05:21:46.677Z,22.8
2023-01-17T05:22:49.192Z,22.8
2023-01-17T05:23:51.699Z,22.8
2023-01-17T05:24:54.208Z,22.8
2023-01-17T05:25:56.443Z,22.9
2023-01-17T05:26:58.985Z,22.9
2023-01-17T05:28:01.540Z,22.8
2023-01-17T05:29:03.785Z,22.7
2023-01-17T05:30:06.047Z,22.8
2023-01-17T05:31:08.732Z,22.9
2023-01-17T05:32:11.021Z,22.9
2023-01-17T05:33:13.580Z,22.8
2023-01-17T05:34:16.091Z,22.8
2023-01-17T05:35:18.306Z,22.7
2023-01-17T05:36:21.250Z,22.9
2023-01-17T05:37:23.800Z,22.7
2023-01-17T05:38:26.015Z,22.7
2023-01-17T05:39:28.258Z,22.8
2023-01-17T05:40:30.502Z,22.8
2023-01-17T05:41:33.083Z,22.8
2023-01-17T05:42:35.022Z,22.9
2023-01-17T05:43:37.581Z,22.9
2023-01-17T05:44:39.807Z,22.8
2023-01-17T05:45:42.426Z,22.9
2023-01-17T05:46:45.033Z,22.9
2023-01-17T05:47:47.272Z,22.6
2023-01-17T05:48:49.226Z,22.7
2023-01-17T05:49:51.726Z,22.8
2023-01-17T05:50:54.230Z,22.9
2023-01-17T05:51:56.735Z,22.8
2023-01-17T05:52:58.981Z,22.7
2023-01-17T05:54:01.514Z,22.6
2023-01-17T05:55:03.757Z,22.7
2023-01-17T05:56:05.969Z,22.7
2023-01-17T05:57:08.488Z,22.9
2023-01-17T05:58:11.013Z,22.8
2023-01-17T05:59:14.311Z,22.7
2023-01-17T06:00:19.907Z,22.7
2023-01-17T06:01:22.433Z,22.7
2023-01-17T06:02:25.025Z,22.7
2023-01-17T06:03:27.753Z,22.8
2023-01-17T06:04:30.364Z,22.7
2023-01-17T06:05:33.078Z,22.7
2023-01-17T06:06:35.044Z,22.7
2023-01-17T06:07:37.563Z,22.8
2023-01-17T06:08:40.092Z,22.7
2023-01-17T06:09:42.614Z,22.7
2023-01-17T06:10:44.835Z,22.7
2023-01-17T06:11:47.083Z,22.8
2023-01-17T06:12:49.629Z,22.6
2023-01-17T06:13:52.112Z,22.7
2023-01-17T06:14:54.375Z,22.8
2023-01-17T06:15:56.449Z,22.6
2023-01-17T06:16:58.463Z,22.9
2023-01-17T06:18:01.132Z,22.9
2023-01-17T06:19:03.629Z,22.7
2023-01-17T06:20:05.879Z,22.7
2023-01-17T06:21:08.403Z,22.6
2023-01-17T06:22:10.380Z,22.8
2023-01-17T06:23:12.897Z,22.7
2023-01-17T06:24:15.491Z,22.7
2023-01-17T06:25:17.997Z,22.7
2023-01-17T06:26:20.523Z,22.7
2023-01-17T06:27:23.023Z,22.7
2023-01-17T06:28:25.276Z,22.6
2023-01-17T06:29:27.809Z,22.6
2023-01-17T06:30:30.358Z,22.7
2023-01-17T06:31:32.901Z,22.7
2023-01-17T06:32:35.525Z,22.7
2023-01-17T06:33:38.229Z,22.7
2023-01-17T06:34:40.792Z,22.7
2023-01-17T06:35:43.319Z,22.6
2023-01-17T06:36:45.801Z,22.5
2023-01-17T06:37:48.024Z,22.7
2023-01-17T06:38:49.962Z,22.6
2023-01-17T06:39:52.200Z,22.6
2023-01-17T06:40:54.704Z,22.7
2023-01-17T06:41:57.215Z,22.6
2023-01-17T06:42:59.782Z,22.6
2023-01-17T06:44:02.100Z,22.6
2023-01-17T06:45:04.330Z,22.8
2023-01-17T06:46:06.875Z,22.7
2023-01-17T06:47:08.840Z,22.6
2023-01-17T06:48:11.096Z,22.8
2023-01-17T06:49:13.941Z,22.8
2023-01-17T06:50:16.206Z,22.7
2023-01-17T06:51:18.488Z,22.7
2023-01-17T06:52:20.990Z,22.6
2023-01-17T06:53:23.235Z,22.7
2023-01-17T06:54:25.196Z,22.7
2023-01-17T06:55:27.473Z,22.7
2023-01-17T06:56:30.027Z,22.6
2023-01-17T06:57:32.574Z,22.7
2023-01-17T06:58:34.788Z,22.7
2023-01-17T06:59:36.766Z,22.7
2023-01-17T07:00:40.836Z,22.7
2023-01-17T07:01:43.817Z,22.7
2023-01-17T07:02:46.653Z,22.6
2023-01-17T07:03:49.321Z,22.6
2023-01-17T07:04:52.354Z,22.6
2023-01-17T07:05:54.362Z,22.7
2023-01-17T07:06:56.918Z,22.6
2023-01-17T07:07:58.869Z,22.5
2023-01-17T07:09:01.422Z,22.7
2023-01-17T07:10:03.717Z,22.6
2023-01-17T07:11:05.948Z,22.6
2023-01-17T07:12:08.545Z,22.7
2023-01-17T07:13:10.785Z,22.4
2023-01-17T07:14:12.750Z,22.5
2023-01-17T07:15:14.994Z,22.6
2023-01-17T07:16:17.385Z,22.6
2023-01-17T07:17:19.881Z,22.7
2023-01-17T07:18:22.107Z,22.7
2023-01-17T07:19:24.673Z,22.7
2023-01-17T07:20:27.050Z,22.6
2023-01-17T07:21:29.615Z,22.6
2023-01-17T07:22:31.558Z,22.7
2023-01-17T07:23:34.115Z,22.7
2023-01-17T07:24:36.421Z,22.7
2023-01-17T07:25:39.042Z,22.7
2023-01-17T07:26:41.250Z,22.8
2023-01-17T07:27:43.554Z,22.7
2023-01-17T07:28:45.792Z,22.6
2023-01-17T07:29:48.326Z,22.7
2023-01-17T07:30:50.950Z,22.6
2023-01-17T07:31:53.488Z,22.8
2023-01-17T07:32:55.779Z,22.6
2023-01-17T07:33:58.029Z,22.4
2023-01-17T07:35:00.283Z,22.6
2023-01-17T07:36:02.934Z,22.6
2023-01-17T07:37:04.884Z,22.6
2023-01-17T07:38:07.415Z,22.5
2023-01-17T07:39:09.696Z,22.7
2023-01-17T07:40:11.959Z,22.6
2023-01-17T07:41:14.537Z,22.7
2023-01-17T07:42:17.068Z,22.6
2023-01-17T07:43:19.333Z,22.6
2023-01-17T07:44:21.602Z,22.5
2023-01-17T07:45:23.881Z,22.8
2023-01-17T07:46:26.194Z,22.6
2023-01-17T07:47:28.945Z,22.6
2023-01-17T07:48:31.492Z,22.5
2023-01-17T07:49:34.022Z,22.5
2023-01-17T07:50:35.972Z,22.6
2023-01-17T07:51:38.636Z,22.5
2023-01-17T07:52:40.849Z,22.6
2023-01-17T07:53:43.116Z,22.5
2023-01-17T07:54:45.348Z,22.7
2023-01-17T07:55:47.323Z,22.7
2023-01-17T07:56:49.311Z,22.4
2023-01-17T07:57:51.833Z,22.6
2023-01-17T07:58:54.207Z,22.6
2023-01-17T07:59:56.752Z,22.5
2023-01-17T08:00:59.056Z,22.6
2023-01-17T08:02:02.334Z,22.5
2023-01-17T08:03:05.134Z,22.6
2023-01-17T08:04:07.808Z,22.6
2023-01-17T08:05:10.699Z,22.5
2023-01-17T08:06:12.955Z,22.6
2023-01-17T08:07:15.661Z,22.5
2023-01-17T08:08:18.221Z,22.7
2023-01-17T08:09:20.751Z,22.5
2023-01-17T08:10:22.779Z,22.4
2023-01-17T08:11:25.112Z,22.4
2023-01-17T08:12:27.726Z,22.5
2023-01-17T08:13:30.052Z,22.5
2023-01-17T08:14:32.562Z,22.7
2023-01-17T08:15:35.091Z,22.4
2023-01-17T08:16:37.445Z,22.5
2023-01-17T08:17:39.643Z,22.5
2023-01-17T08:18:41.907Z,22.6
2023-01-17T08:19:44.440Z,22.4
2023-01-17T08:20:46.564Z,22.4
2023-01-17T08:21:48.511Z,22.7
2023-01-17T08:22:51.298Z,22.6
2023-01-17T08:23:53.880Z,22.5
2023-01-17T08:24:56.163Z,22.6
2023-01-17T08:25:58.731Z,22.7
2023-01-17T08:27:01.233Z,22.6
2023-01-17T08:28:03.200Z,22.5
2023-01-17T08:29:05.461Z,22.5
2023-01-17T08:30:07.713Z,22.5
2023-01-17T08:31:10.248Z,22.3
2023-01-17T08:32:12.864Z,22.5
2023-01-17T08:33:15.427Z,22.5
2023-01-17T08:34:18.036Z,22.5
2023-01-17T08:35:20.592Z,22.5
2023-01-17T08:36:23.207Z,22.6
2023-01-17T08:37:24.897Z,22.4
2023-01-17T08:38:27.549Z,22.6
2023-01-17T08:39:29.831Z,22.6
2023-01-17T08:40:32.389Z,22.4
2023-01-17T08:41:34.367Z,22.6
2023-01-17T08:42:36.902Z,22.5
2023-01-17T08:43:39.133Z,22.7
2023-01-17T08:44:41.387Z,22.6
2023-01-17T08:45:43.716Z,22.6
2023-01-17T08:46:46.214Z,22.7
2023-01-17T08:47:48.436Z,22.5
2023-01-17T08:48:51.294Z,22.6
2023-01-17T08:49:53.797Z,22.7
2023-01-17T08:50:56.338Z,22.6
2023-01-17T08:51:58.607Z,22.6
2023-01-17T08:53:01.314Z,22.7
2023-01-17T08:54:04.050Z,22.6
2023-01-17T08:55:06.583Z,22.8
2023-01-17T08:56:09.107Z,22.4
2023-01-17T08:57:11.335Z,22.4
2023-01-17T08:58:13.289Z,22.7
2023-01-17T08:59:15.573Z,22.6
2023-01-17T09:00:18.147Z,22.6
2023-01-17T09:01:20.783Z,22.7
2023-01-17T09:02:24.016Z,22.8
2023-01-17T09:03:26.307Z,22.7
2023-01-17T09:04:28.340Z,22.6
2023-01-17T09:05:30.867Z,22.5
2023-01-17T09:06:33.473Z,22.5
2023-01-17T09:07:35.746Z,22.4
2023-01-17T09:08:38.032Z,22.4
2023-01-17T09:09:40.681Z,22.4
2023-01-17T09:10:43.266Z,22.6
2023-01-17T09:11:45.804Z,22.6
2023-01-17T09:12:48.026Z,22.4
2023-01-17T09:13:50.256Z,22.5
2023-01-17T09:14:52.517Z,22.8
2023-01-17T09:15:55.071Z,22.5
2023-01-17T09:16:57.282Z,22.6
2023-01-17T09:17:59.513Z,22.7
2023-01-17T09:19:01.765Z,22.6
2023-01-17T09:20:04.016Z,22.7
2023-01-17T09:21:06.242Z,22.6
2023-01-17T09:22:08.516Z,22.6
2023-01-17T09:23:11.264Z,22.6
2023-01-17T09:24:13.820Z,22.7
2023-01-17T09:25:16.438Z,22.5
2023-01-17T09:26:18.966Z,22.5
2023-01-17T09:27:21.319Z,22.6
2023-01-17T09:28:23.893Z,22.6
2023-01-17T09:29:26.125Z,22.6
2023-01-17T09:30:28.687Z,22.5
2023-01-17T09:31:31.087Z,22.6
2023-01-17T09:32:33.347Z,22.6
2023-01-17T09:33:35.805Z,22.6
2023-01-17T09:34:37.791Z,22.6
2023-01-17T09:35:40.335Z,22.6
2023-01-17T09:36:42.572Z,22.7
2023-01-17T09:37:44.565Z,22.5
2023-01-17T09:38:47.074Z,22.6
2023-01-17T09:39:49.407Z,22.7
2023-01-17T09:40:52.269Z,22.8
2023-01-17T09:41:54.517Z,22.5
2023-01-17T09:42:57.179Z,22.6
2023-01-17T09:43:59.499Z,22.7
2023-01-17T09:45:01.186Z,22.6
2023-01-17T09:46:03.489Z,22.5
2023-01-17T09:47:06.170Z,22.7
2023-01-17T09:48:08.991Z,22.6
2023-01-17T09:49:11.271Z,22.9
2023-01-17T09:50:13.800Z,22.6
2023-01-17T09:51:16.043Z,22.7
2023-01-17T09:52:18.287Z,22.7
2023-01-17T09:53:20.555Z,22.8
2023-01-17T09:54:22.882Z,22.6
2023-01-17T09:55:25.169Z,22.7
2023-01-17T09:56:27.881Z,22.8
2023-01-17T09:57:30.175Z,22.7
2023-01-17T09:58:32.674Z,22.5
2023-01-17T09:59:35.889Z,22.6
2023-01-17T10:00:38.510Z,22.6
2023-01-17T10:01:41.317Z,22.7
2023-01-17T10:02:44.709Z,22.5
2023-01-17T10:03:48.301Z,22.5
2023-01-17T10:04:51.624Z,22.8
2023-01-17T10:05:54.131Z,22.6
2023-01-17T10:06:56.368Z,22.6
2023-01-17T10:07:58.904Z,22.7
2023-01-17T10:09:05.152Z,22.6
2023-01-17T10:10:07.677Z,22.5
2023-01-17T10:11:10.199Z,22.6
2023-01-17T10:12:12.868Z,22.5
2023-01-17T10:13:15.385Z,22.6
2023-01-17T10:14:17.896Z,22.8
2023-01-17T10:15:20.391Z,22.5
2023-01-17T10:16:22.649Z,22.7
2023-01-17T10:17:25.075Z,22.7
2023-01-17T10:18:30.308Z,22.7
2023-01-17T10:19:32.563Z,22.6
2023-01-17T10:20:35.055Z,22.6
2023-01-17T10:21:37.041Z,22.7
2023-01-17T10:22:39.279Z,22.5
2023-01-17T10:23:41.791Z,22.7
2023-01-17T10:24:44.355Z,22.7
2023-01-17T10:25:46.599Z,22.8
2023-01-17T10:26:48.830Z,22.7
2023-01-17T10:27:51.431Z,22.4
2023-01-17T10:28:53.461Z,22.8
2023-01-17T10:29:55.423Z,22.7
2023-01-17T10:30:57.782Z,22.7
2023-01-17T10:32:00.422Z,22.7
2023-01-17T10:33:03.002Z,22.6
2023-01-17T10:34:05.555Z,22.7
2023-01-17T10:35:07.562Z,22.5
2023-01-17T10:36:09.845Z,22.6
2023-01-17T10:37:12.241Z,22.6
2023-01-17T10:38:14.775Z,22.5
2023-01-17T10:39:17.314Z,22.8
2023-01-17T10:40:19.833Z,22.7
2023-01-17T10:41:22.150Z,22.8
2023-01-17T10:42:24.441Z,22.7
2023-01-17T10:43:27.110Z,22.4
2023-01-17T10:44:29.380Z,22.6
2023-01-17T10:45:31.631Z,22.7
2023-01-17T10:46:34.145Z,22.5
2023-01-17T10:47:36.426Z,22.7
2023-01-17T10:48:38.119Z,22.6
2023-01-17T10:49:40.212Z,22.5
2023-01-17T10:50:42.714Z,22.6
2023-01-17T10:51:45.265Z,22.8
2023-01-17T10:52:47.804Z,22.7
2023-01-17T10:53:50.084Z,22.5
2023-01-17T10:54:52.613Z,22.5
2023-01-17T10:55:54.908Z,22.6
2023-01-17T10:56:57.426Z,22.8
2023-01-17T10:57:59.935Z,22.6
2023-01-17T10:59:02.756Z,22.7
2023-01-17T11:00:05.292Z,22.7
2023-01-17T11:01:07.927Z,22.5
2023-01-17T11:02:11.133Z,22.7
2023-01-17T11:03:13.953Z,22.7
2023-01-17T11:04:16.536Z,22.6
2023-01-17T11:05:18.541Z,22.7
2023-01-17T11:06:20.819Z,22.6
2023-01-17T11:07:23.066Z,22.7
2023-01-17T11:08:25.051Z,22.5
2023-01-17T11:09:27.578Z,22.6
2023-01-17T11:10:30.073Z,22.5
2023-01-17T11:11:32.635Z,22.6
2023-01-17T11:12:35.185Z,22.7
2023-01-17T11:13:37.727Z,22.5
2023-01-17T11:14:40.466Z,22.7
2023-01-17T11:15:43.037Z,22.5
2023-01-17T11:16:45.795Z,22.6
2023-01-17T11:17:48.045Z,22.6
2023-01-17T11:18:50.598Z,22.6
2023-01-17T11:19:52.592Z,22.8
2023-01-17T11:20:54.807Z,22.6
2023-01-17T11:21:57.333Z,22.7
2023-01-17T11:22:59.868Z,22.4
2023-01-17T11:24:02.120Z,22.6
2023-01-17T11:25:04.113Z,22.6
2023-01-17T11:26:06.663Z,22.6
2023-01-17T11:27:09.286Z,22.6
2023-01-17T11:28:11.791Z,22.7
2023-01-17T11:29:13.737Z,22.6
2023-01-17T11:30:16.444Z,22.6
2023-01-17T11:31:18.727Z,22.5
2023-01-17T11:32:21.539Z,22.6
2023-01-17T11:33:23.850Z,22.6
2023-01-17T11:34:26.377Z,22.6
2023-01-17T11:35:28.619Z,22.6
2023-01-17T11:36:31.167Z,22.6
2023-01-17T11:37:33.491Z,22.6
2023-01-17T11:38:36.058Z,22.6
2023-01-17T11:39:38.063Z,22.5
2023-01-17T11:40:40.319Z,22.6
2023-01-17T11:41:42.610Z,22.8
2023-01-17T11:42:44.885Z,22.5
2023-01-17T11:43:47.385Z,22.6
2023-01-17T11:44:49.909Z,22.6
2023-01-17T11:45:52.596Z,22.4
2023-01-17T11:46:55.369Z,22.5
2023-01-17T11:47:57.597Z,22.7
2023-01-17T11:48:59.570Z,22.7
2023-01-17T11:50:02.238Z,22.6
2023-01-17T11:51:04.774Z,22.6
2023-01-17T11:52:07.012Z,22.6
2023-01-17T11:53:09.529Z,22.6
2023-01-17T11:54:11.492Z,22.4
2023-01-17T11:55:13.994Z,22.6
2023-01-17T11:56:15.733Z,22.7
2023-01-17T11:57:17.939Z,22.5
2023-01-17T11:58:19.946Z,22.5
2023-01-17T11:59:22.277Z,22.5
2023-01-17T12:00:24.270Z,22.6
2023-01-17T12:01:26.872Z,22.7
2023-01-17T12:02:29.140Z,22.6
2023-01-17T12:03:31.670Z,22.6
2023-01-17T12:04:35.627Z,22.6
2023-01-17T12:05:38.555Z,22.6
2023-01-17T12:06:56.329Z,22.7
2023-01-17T12:07:45.510Z,22.6
2023-01-17T12:08:48.050Z,22.6
2023-01-17T12:09:50.014Z,22.6
2023-01-17T12:10:52.656Z,22.5
2023-01-17T12:11:55.221Z,22.6
2023-01-17T12:12:57.469Z,22.6
2023-01-17T12:13:59.466Z,22.5
2023-01-17T12:15:02.174Z,22.6
2023-01-17T12:16:04.772Z,22.5
2023-01-17T12:17:07.712Z,22.5
2023-01-17T12:18:10.290Z,22.6
2023-01-17T12:19:12.834Z,22.4
2023-01-17T12:20:15.092Z,22.6
2023-01-17T12:21:17.635Z,22.4
2023-01-17T12:22:19.899Z,22.5
2023-01-17T12:23:22.448Z,22.5
2023-01-17T12:24:24.450Z,22.6
2023-01-17T12:25:26.564Z,22.5
2023-01-17T12:26:28.559Z,22.4
2023-01-17T12:27:30.828Z,22.7
2023-01-17T12:28:33.424Z,22.6
2023-01-17T12:29:35.696Z,22.5
2023-01-17T12:30:37.376Z,22.8
2023-01-17T12:31:39.419Z,22.4
2023-01-17T12:32:42.235Z,22.5
2023-01-17T12:33:44.584Z,22.7
2023-01-17T12:34:46.848Z,22.6
2023-01-17T12:35:49.108Z,22.7
2023-01-17T12:36:51.685Z,22.6
2023-01-17T12:38:04.346Z,22.6
2023-01-17T12:38:58.919Z,22.5
2023-01-17T12:40:01.450Z,22.6
2023-01-17T12:41:03.763Z,22.4
2023-01-17T12:42:06.285Z,22.6
2023-01-17T12:43:08.286Z,22.6
2023-01-17T12:44:10.816Z,22.6
2023-01-17T12:45:13.102Z,22.4
2023-01-17T12:46:15.632Z,22.6
2023-01-17T12:47:17.848Z,22.6
2023-01-17T12:48:20.454Z,22.6
2023-01-17T12:49:22.409Z,22.6
2023-01-17T12:50:24.960Z,22.5
2023-01-17T12:51:27.221Z,22.6
2023-01-17T12:52:29.482Z,22.6
2023-01-17T12:53:31.975Z,22.5
2023-01-17T12:54:34.223Z,22.6
2023-01-17T12:55:36.913Z,22.6
2023-01-17T12:56:38.609Z,22.6
2023-01-17T12:57:41.129Z,22.6
2023-01-17T12:58:43.654Z,22.5
2023-01-17T12:59:45.612Z,22.5
2023-01-17T13:00:48.252Z,22.6
2023-01-17T13:01:50.698Z,22.5
2023-01-17T13:02:53.851Z,22.6
2023-01-17T13:03:57.708Z,22.4
2023-01-17T13:05:00.316Z,22.5
2023-01-17T13:06:02.835Z,22.6
2023-01-17T13:07:05.408Z,22.6
2023-01-17T13:08:07.975Z,22.7
2023-01-17T13:09:10.213Z,22.4
2023-01-17T13:10:11.964Z,22.5
2023-01-17T13:11:14.121Z,22.6
2023-01-17T13:12:16.733Z,22.5
2023-01-17T13:13:19.019Z,22.5
2023-01-17T13:14:20.745Z,22.6
2023-01-17T13:15:23.257Z,22.5
2023-01-17T13:16:25.580Z,22.6
2023-01-17T13:17:28.399Z,22.5
2023-01-17T13:18:30.917Z,22.6
2023-01-17T13:19:33.596Z,22.5
2023-01-17T13:20:35.860Z,22.6
2023-01-17T13:21:38.383Z,22.6
2023-01-17T13:22:40.934Z,22.6
2023-01-17T13:23:43.488Z,22.7
2023-01-17T13:24:45.721Z,22.5
2023-01-17T13:25:48.006Z,22.5
2023-01-17T13:26:50.470Z,22.6
2023-01-17T13:27:53.031Z,22.6
2023-01-17T13:28:55.304Z,22.5
2023-01-17T13:29:57.548Z,22.6
2023-01-17T13:31:00.123Z,22.7
2023-01-17T13:32:02.728Z,22.5
2023-01-17T13:33:05.300Z,22.6
2023-01-17T13:34:07.569Z,22.5
2023-01-17T13:35:10.235Z,22.5
2023-01-17T13:36:12.503Z,22.5
2023-01-17T13:37:14.738Z,22.6
2023-01-17T13:38:16.996Z,22.5
2023-01-17T13:39:18.697Z,22.5
2023-01-17T13:40:21.688Z,22.7
2023-01-17T13:41:23.954Z,22.6
2023-01-17T13:42:25.896Z,22.6
2023-01-17T13:43:28.460Z,22.5
2023-01-17T13:44:30.143Z,22.6
2023-01-17T13:45:32.778Z,22.6
2023-01-17T13:46:35.635Z,22.6
2023-01-17T13:47:38.270Z,22.7
2023-01-17T13:48:40.931Z,22.6
2023-01-17T13:49:43.537Z,22.7
2023-01-17T13:50:46.240Z,22.5
2023-01-17T13:51:48.893Z,22.7
2023-01-17T13:52:51.437Z,22.5
2023-01-17T13:53:54.005Z,22.5
2023-01-17T13:54:56.286Z,22.6
2023-01-17T13:55:58.296Z,22.5